Terminal Aerodrome Forecast
Issued by NWS Detroit/Pontiac, MI

Home | Current Version | Previous Version | Text Only | Print | Product List | Glossary On
Versions: 1 2 3 4 5 6 7 8 9 10 11 12 13 14 15 16 17 18 19 20
543
FTUS43 KDTX 111957 AAA
TAFFNT
TAF AMD
KFNT 111957Z 1120/1218 29010KT P6SM SCT035 BKN045
     FM120100 24006KT P6SM SCT045
     FM120800 23008KT P6SM BKN200
     FM121400 26013G20KT P6SM BKN030
     FM121600 27016G26KT P6SM -SHSN BKN025 OVC030 PROB30 1216/1218
      3SM -SHSN BKN022 OVC025=

USA.gov is the U.S. government's official web portal to all federal, state and local government web resources and services.